Time;durP1;ratioP1;P1;durP2;ratioP2;P2;SDS_P1;SDS_P2;PMS_P1;PMS_P2;Temp;Humidity;BMP_temperature;BMP_pressure;BME280_temperature;BME280_humidity;BME280_pressure;Samples;Min_cycle;Max_cycle;Signal;HPM_P1;HPM_P2
2024/03/04 00:00:42;;;;;;;11.20;5.93;;;5.60;99.90;;;;;;5086787;28;20069;-77
2024/03/04 00:03:08;;;;;;;8.48;5.35;;;5.60;99.90;;;;;;5085872;28;20025;-77
2024/03/04 00:05:36;;;;;;;7.32;4.38;;;5.40;99.90;;;;;;5088862;28;20035;-77
2024/03/04 00:08:03;;;;;;;11.27;5.95;;;5.50;99.90;;;;;;5087149;28;20541;-77
2024/03/04 00:10:29;;;;;;;12.15;6.43;;;5.40;99.90;;;;;;5086928;28;20043;-77
2024/03/04 00:12:55;;;;;;;12.60;5.63;;;5.40;99.90;;;;;;5087836;28;20036;-77
2024/03/04 00:15:23;;;;;;;10.98;4.72;;;5.40;99.90;;;;;;5085710;28;20044;-76
2024/03/04 00:17:50;;;;;;;9.80;5.10;;;5.30;99.90;;;;;;5086657;28;20044;-77
2024/03/04 00:20:16;;;;;;;12.10;6.28;;;5.30;99.90;;;;;;5099353;28;20037;-77
2024/03/04 00:22:45;;;;;;;12.00;5.80;;;5.40;99.90;;;;;;5095581;28;20044;-77
2024/03/04 00:25:15;;;;;;;10.18;4.75;;;5.50;99.90;;;;;;5082383;28;20512;-78
2024/03/04 00:27:42;;;;;;;12.38;5.13;;;5.40;99.90;;;;;;5091917;28;20202;-78
2024/03/04 00:30:09;;;;;;;8.68;4.28;;;5.30;99.90;;;;;;5081687;28;20040;-76
2024/03/04 00:32:34;;;;;;;6.85;4.28;;;5.30;99.90;;;;;;5088925;28;20119;-77
2024/03/04 00:35:00;;;;;;;8.63;4.72;;;5.30;99.90;;;;;;5084857;28;20128;-77
2024/03/04 00:37:26;;;;;;;8.50;4.65;;;5.30;99.90;;;;;;5087623;28;20040;-77
2024/03/04 00:39:51;;;;;;;8.45;4.05;;;5.20;99.90;;;;;;5084417;28;20040;-76
2024/03/04 00:42:17;;;;;;;6.85;3.25;;;5.20;99.90;;;;;;5086245;28;20074;-77
2024/03/04 00:44:43;;;;;;;9.45;4.13;;;5.10;99.90;;;;;;5083526;28;20502;-76
2024/03/04 00:47:09;;;;;;;8.13;4.07;;;5.10;99.90;;;;;;5087577;28;20036;-77
2024/03/04 00:49:35;;;;;;;4.85;3.28;;;5.10;99.90;;;;;;5083375;28;20093;-77
2024/03/04 00:52:01;;;;;;;6.65;3.67;;;5.00;99.90;;;;;;5084004;28;20047;-77
2024/03/04 00:54:27;;;;;;;8.65;3.42;;;5.00;99.90;;;;;;5085160;28;20494;-77
2024/03/04 00:56:55;;;;;;;5.22;3.70;;;4.90;99.90;;;;;;5083975;28;20035;-77
2024/03/04 00:59:23;;;;;;;8.88;5.15;;;4.90;99.90;;;;;;5086503;28;20040;-77
2024/03/04 01:01:50;;;;;;;6.53;4.18;;;4.90;99.90;;;;;;5088541;28;20047;-76
2024/03/04 01:04:16;;;;;;;12.43;6.15;;;4.80;99.90;;;;;;5086715;28;20040;-77
2024/03/04 01:06:42;;;;;;;7.93;5.30;;;4.90;99.90;;;;;;5071943;28;20129;-77
2024/03/04 01:09:10;;;;;;;6.60;4.03;;;4.90;99.90;;;;;;5082083;28;20510;-77
2024/03/04 01:11:36;;;;;;;6.63;3.50;;;4.90;99.90;;;;;;5099670;28;20041;-76
2024/03/04 01:14:02;;;;;;;6.63;3.78;;;5.00;99.90;;;;;;5087834;28;20051;-77
2024/03/04 01:16:28;;;;;;;9.10;3.78;;;5.00;99.90;;;;;;5067690;28;20035;-77
2024/03/04 01:18:55;;;;;;;8.57;4.03;;;4.90;99.90;;;;;;5086337;28;20044;-77
2024/03/04 01:21:22;;;;;;;4.65;2.90;;;4.90;99.90;;;;;;5085159;28;20044;-77
2024/03/04 01:23:50;;;;;;;4.80;3.05;;;4.90;99.90;;;;;;5087578;28;20039;-78
2024/03/04 01:26:17;;;;;;;3.28;2.00;;;4.90;99.90;;;;;;5085913;28;20036;-78
2024/03/04 01:28:43;;;;;;;4.75;2.08;;;4.70;99.90;;;;;;5086901;28;20120;-78
2024/03/04 01:31:09;;;;;;;4.85;2.65;;;4.80;99.90;;;;;;5085484;28;20036;-77
2024/03/04 01:33:36;;;;;;;2.60;2.05;;;4.80;99.90;;;;;;5086635;28;20036;-78
2024/03/04 01:36:03;;;;;;;3.15;2.17;;;4.70;99.90;;;;;;5067625;28;20880;-77
2024/03/04 01:38:28;;;;;;;2.28;1.73;;;4.70;99.90;;;;;;5084117;28;20046;-77
2024/03/04 01:40:54;;;;;;;4.93;3.10;;;4.80;99.90;;;;;;5088212;28;20044;-78
2024/03/04 01:43:20;;;;;;;3.85;2.75;;;4.60;99.90;;;;;;5075183;28;20040;-78
2024/03/04 01:45:45;;;;;;;5.03;2.67;;;4.60;99.90;;;;;;5088312;28;20039;-78
2024/03/04 01:48:11;;;;;;;3.33;2.17;;;4.60;99.90;;;;;;5089839;28;20080;-78
2024/03/04 01:50:41;;;;;;;3.88;2.17;;;4.50;99.90;;;;;;5087572;28;20123;-77
2024/03/04 01:53:08;;;;;;;3.20;2.63;;;4.60;99.90;;;;;;5089492;28;20496;-77
2024/03/04 01:55:52;;;;;;;3.75;2.83;;;4.50;99.90;;;;;;5076655;28;20032;-78
2024/03/04 01:58:18;;;;;;;5.25;2.38;;;4.50;99.90;;;;;;5102379;28;20044;-77
2024/03/04 02:00:48;;;;;;;3.85;2.25;;;4.50;99.90;;;;;;5089215;28;20131;-77
2024/03/04 02:03:16;;;;;;;6.35;3.30;;;4.40;99.90;;;;;;5100677;28;20040;-77
2024/03/04 02:05:44;;;;;;;2.78;2.17;;;4.50;99.90;;;;;;5084096;28;20501;-76
2024/03/04 02:08:16;;;;;;;3.47;2.38;;;4.40;99.90;;;;;;5088351;28;20076;-76
2024/03/04 02:10:42;;;;;;;4.70;2.05;;;4.40;99.90;;;;;;5088468;28;20127;-76
2024/03/04 02:13:08;;;;;;;3.88;2.38;;;4.40;99.90;;;;;;5086103;28;20032;-77
2024/03/04 02:15:37;;;;;;;2.38;2.17;;;4.40;99.90;;;;;;5091112;28;20028;-78
2024/03/04 02:18:07;;;;;;;5.00;2.38;;;4.30;99.90;;;;;;5082903;28;20064;-78
2024/03/04 02:20:42;;;;;;;4.18;2.55;;;4.30;99.90;;;;;;5088648;28;20040;-77
2024/03/04 02:23:10;;;;;;;3.80;2.47;;;4.40;99.90;;;;;;5088604;28;20043;-77
2024/03/04 02:25:37;;;;;;;2.90;2.03;;;4.20;99.90;;;;;;5087945;28;20437;-77
2024/03/04 02:28:03;;;;;;;3.08;1.92;;;4.20;99.90;;;;;;5083489;28;20032;-77
2024/03/04 02:30:31;;;;;;;1.95;1.40;;;4.20;99.90;;;;;;5090093;28;20392;-77
2024/03/04 02:32:58;;;;;;;4.35;2.03;;;4.20;99.90;;;;;;5088810;28;20055;-77
2024/03/04 02:35:29;;;;;;;2.63;1.63;;;4.10;99.90;;;;;;5090859;28;20035;-77
2024/03/04 02:37:56;;;;;;;3.22;2.05;;;4.10;99.90;;;;;;5084589;28;20043;-78
2024/03/04 02:40:21;;;;;;;3.00;1.85;;;4.10;99.90;;;;;;5072421;28;20803;-78
2024/03/04 02:42:50;;;;;;;4.95;2.38;;;4.00;99.90;;;;;;5089824;28;20114;-77
2024/03/04 02:45:16;;;;;;;4.35;2.17;;;4.00;99.90;;;;;;5069545;28;20392;-77
2024/03/04 02:47:41;;;;;;;6.13;3.72;;;4.00;99.90;;;;;;5087516;28;20159;-78
2024/03/04 02:50:08;;;;;;;5.50;3.65;;;4.00;99.90;;;;;;5105287;28;20036;-78
2024/03/04 02:52:33;;;;;;;6.28;3.72;;;4.10;99.90;;;;;;5087665;28;20063;-77
2024/03/04 02:55:00;;;;;;;3.30;2.38;;;4.00;99.90;;;;;;5102227;28;20296;-77
2024/03/04 02:57:26;;;;;;;3.30;2.45;;;4.00;99.90;;;;;;5090921;28;20059;-77
2024/03/04 02:59:53;;;;;;;3.92;2.83;;;4.00;99.90;;;;;;5084116;28;20135;-77
2024/03/04 03:02:19;;;;;;;11.57;2.72;;;4.00;99.90;;;;;;5081977;28;20531;-78
2024/03/04 03:04:46;;;;;;;8.30;3.38;;;4.00;99.90;;;;;;5085405;28;20054;-77
2024/03/04 03:07:12;;;;;;;3.00;1.42;;;4.00;99.90;;;;;;5087087;28;20036;-78
2024/03/04 03:09:38;;;;;;;3.80;2.53;;;3.90;99.90;;;;;;5065586;28;20048;-78
2024/03/04 03:12:04;;;;;;;2.42;1.70;;;3.90;99.90;;;;;;5087184;28;20491;-78
2024/03/04 03:14:29;;;;;;;5.72;3.03;;;3.90;99.90;;;;;;5081748;28;20033;-78
2024/03/04 03:16:55;;;;;;;9.63;2.75;;;3.90;99.90;;;;;;5068936;28;20074;-77
2024/03/04 03:19:25;;;;;;;2.88;1.73;;;3.90;99.90;;;;;;5084201;28;20040;-78
2024/03/04 03:21:52;;;;;;;3.15;2.60;;;3.90;99.90;;;;;;5083400;28;20480;-76
2024/03/04 03:24:23;;;;;;;13.00;3.63;;;3.90;99.90;;;;;;5085080;28;20647;-77
2024/03/04 03:26:48;;;;;;;4.90;3.70;;;3.90;99.90;;;;;;5089217;28;20054;-78
2024/03/04 03:29:17;;;;;;;6.45;4.18;;;3.90;99.90;;;;;;5088884;28;20052;-77
2024/03/04 03:31:44;;;;;;;6.57;4.63;;;4.00;99.90;;;;;;5069619;28;20040;-78
2024/03/04 03:34:10;;;;;;;6.10;3.92;;;4.00;99.90;;;;;;5071209;28;20043;-77
2024/03/04 03:36:42;;;;;;;5.53;3.85;;;4.00;99.90;;;;;;5088288;28;20403;-77
2024/03/04 03:39:09;;;;;;;8.70;4.95;;;4.10;99.90;;;;;;5071075;28;20516;-77
2024/03/04 03:41:41;;;;;;;11.80;4.78;;;4.00;99.90;;;;;;5102704;28;20032;-78
2024/03/04 03:44:07;;;;;;;13.13;3.45;;;4.20;99.90;;;;;;5087770;28;20032;-77
2024/03/04 03:46:34;;;;;;;5.78;4.40;;;4.20;99.90;;;;;;5086982;28;20363;-78
2024/03/04 03:49:00;;;;;;;33.80;5.35;;;4.30;99.90;;;;;;5088727;28;20082;-78
2024/03/04 03:51:25;;;;;;;5.28;4.07;;;4.40;99.90;;;;;;5085190;28;20040;-78
2024/03/04 03:53:51;;;;;;;13.35;5.07;;;4.50;99.90;;;;;;5087533;28;20095;-77
2024/03/04 03:56:17;;;;;;;7.82;4.90;;;4.50;99.90;;;;;;5084385;28;20048;-78
2024/03/04 03:58:43;;;;;;;9.15;5.65;;;4.70;99.90;;;;;;5084004;28;20043;-78
2024/03/04 04:01:10;;;;;;;6.68;4.82;;;4.60;99.90;;;;;;5083610;28;20043;-79
2024/03/04 04:03:36;;;;;;;8.55;4.45;;;4.70;99.90;;;;;;5081863;28;20036;-79
2024/03/04 04:06:02;;;;;;;8.18;4.70;;;4.70;99.90;;;;;;5083000;28;20107;-80
2024/03/04 04:08:28;;;;;;;10.35;5.53;;;4.70;99.90;;;;;;5084937;28;20169;-80
2024/03/04 04:10:54;;;;;;;7.05;4.93;;;4.80;99.90;;;;;;5066934;28;20055;-80
2024/03/04 04:13:21;;;;;;;9.43;5.60;;;4.80;99.90;;;;;;5105478;28;20044;-80
2024/03/04 04:15:47;;;;;;;7.90;4.78;;;4.90;99.90;;;;;;5085369;28;20036;-80
2024/03/04 04:18:12;;;;;;;24.45;4.63;;;4.80;99.90;;;;;;5084819;28;20609;-80
2024/03/04 04:20:38;;;;;;;9.88;4.40;;;4.80;99.90;;;;;;5087489;28;20495;-77
2024/03/04 04:23:05;;;;;;;11.82;5.68;;;4.90;99.90;;;;;;5067465;28;20046;-79
2024/03/04 04:25:31;;;;;;;14.15;5.20;;;4.90;99.90;;;;;;5086903;28;20526;-79
2024/03/04 04:27:57;;;;;;;11.25;4.07;;;4.90;99.90;;;;;;5070307;28;20373;-79
2024/03/04 04:30:23;;;;;;;19.77;4.68;;;4.90;99.90;;;;;;5088531;28;20062;-79
2024/03/04 04:32:48;;;;;;;7.95;5.22;;;5.00;99.90;;;;;;5086662;28;20040;-78
2024/03/04 04:35:14;;;;;;;7.13;4.72;;;5.00;99.90;;;;;;5070614;28;20064;-79
2024/03/04 04:37:43;;;;;;;8.48;5.18;;;5.00;99.90;;;;;;5070808;28;20051;-78
2024/03/04 04:40:09;;;;;;;7.68;5.50;;;5.10;99.90;;;;;;5086794;28;20044;-78
2024/03/04 04:42:36;;;;;;;7.07;5.03;;;5.10;99.90;;;;;;5066951;28;20055;-79
2024/03/04 04:45:02;;;;;;;7.38;4.80;;;5.10;99.90;;;;;;5086579;28;20404;-78
2024/03/04 04:47:29;;;;;;;15.88;6.65;;;5.10;99.90;;;;;;5070017;28;20039;-78
2024/03/04 04:49:55;;;;;;;8.30;5.30;;;5.20;99.90;;;;;;5084930;28;20043;-79
2024/03/04 04:52:21;;;;;;;10.18;5.18;;;5.20;99.90;;;;;;5087895;28;20044;-78
2024/03/04 04:54:48;;;;;;;10.15;5.30;;;5.30;99.90;;;;;;5068278;28;20052;-78
2024/03/04 04:57:15;;;;;;;8.32;4.97;;;5.30;99.90;;;;;;5086402;28;20044;-78
2024/03/04 04:59:41;;;;;;;6.72;4.53;;;5.40;99.90;;;;;;5100106;28;20036;-77
2024/03/04 05:02:07;;;;;;;9.80;4.28;;;5.40;99.90;;;;;;5088205;28;20047;-78
2024/03/04 05:04:33;;;;;;;15.55;6.32;;;5.50;99.90;;;;;;5082995;28;20033;-78
2024/03/04 05:07:00;;;;;;;10.07;5.15;;;5.50;99.90;;;;;;5087405;28;20177;-78
2024/03/04 05:09:26;;;;;;;16.17;6.15;;;5.50;99.90;;;;;;5098098;28;20075;-79
2024/03/04 05:11:51;;;;;;;12.85;6.75;;;5.60;99.90;;;;;;5070578;28;20503;-79
2024/03/04 05:14:18;;;;;;;12.77;6.47;;;5.60;99.90;;;;;;5080967;28;20036;-79
2024/03/04 05:16:47;;;;;;;12.13;5.90;;;5.60;99.90;;;;;;5070742;28;20040;-79
2024/03/04 05:19:13;;;;;;;10.85;6.25;;;5.70;99.90;;;;;;5084552;28;20044;-80
2024/03/04 05:21:39;;;;;;;9.45;5.03;;;5.70;99.90;;;;;;5086588;28;20044;-79
2024/03/04 05:24:04;;;;;;;11.25;6.15;;;5.70;99.90;;;;;;5081912;28;20043;-79
2024/03/04 05:26:30;;;;;;;7.75;5.15;;;5.70;99.90;;;;;;5069229;28;20408;-79
2024/03/04 05:28:56;;;;;;;12.13;5.05;;;5.80;99.90;;;;;;5083644;28;20042;-79
2024/03/04 05:31:22;;;;;;;12.23;6.68;;;5.80;99.90;;;;;;5070491;28;20040;-78
2024/03/04 05:33:48;;;;;;;11.82;6.03;;;5.80;99.90;;;;;;5087341;28;20492;-79
2024/03/04 05:36:13;;;;;;;13.82;5.30;;;5.90;99.90;;;;;;5070246;28;20045;-79
2024/03/04 05:38:39;;;;;;;11.65;6.10;;;5.90;99.90;;;;;;5069175;28;20234;-80
2024/03/04 05:41:05;;;;;;;9.18;6.43;;;5.90;99.90;;;;;;5085904;28;20492;-80
2024/03/04 05:43:31;;;;;;;10.45;5.10;;;5.90;99.90;;;;;;5086579;28;20082;-80
2024/03/04 05:45:56;;;;;;;10.50;5.25;;;6.00;99.90;;;;;;5085345;28;20067;-79
2024/03/04 05:48:22;;;;;;;10.00;5.40;;;6.00;99.90;;;;;;5087047;28;20040;-80
2024/03/04 05:50:48;;;;;;;13.02;6.20;;;6.00;99.90;;;;;;5099987;28;20036;-80
2024/03/04 05:53:15;;;;;;;9.05;5.03;;;6.00;99.90;;;;;;5087394;28;20516;-80
2024/03/04 05:55:42;;;;;;;9.40;4.65;;;6.00;99.90;;;;;;5087808;28;20573;-80
2024/03/04 05:58:09;;;;;;;12.23;6.63;;;6.10;99.90;;;;;;5085239;28;20040;-80
2024/03/04 06:00:35;;;;;;;12.95;7.15;;;6.10;99.90;;;;;;5085989;28;20040;-80
2024/03/04 06:03:01;;;;;;;9.48;5.95;;;6.10;99.90;;;;;;5085872;28;20032;-80
2024/03/04 06:05:27;;;;;;;13.57;5.47;;;6.10;99.90;;;;;;5087083;28;20094;-80
2024/03/04 06:07:57;;;;;;;13.10;6.45;;;6.20;99.90;;;;;;5085372;28;20039;-80
2024/03/04 06:10:23;;;;;;;11.20;5.18;;;6.10;99.90;;;;;;5083111;28;20074;-80
2024/03/04 06:12:49;;;;;;;10.75;6.03;;;6.30;99.90;;;;;;5080525;28;20526;-80
2024/03/04 06:15:15;;;;;;;11.68;5.45;;;6.20;99.90;;;;;;5086270;28;20057;-80
2024/03/04 06:17:40;;;;;;;14.55;5.65;;;6.30;99.90;;;;;;5085106;28;20127;-80
2024/03/04 06:20:09;;;;;;;15.75;6.35;;;6.30;99.90;;;;;;5085746;28;20052;-78
2024/03/04 06:22:39;;;;;;;11.88;5.07;;;6.40;99.90;;;;;;5085182;28;20155;-80
2024/03/04 06:25:06;;;;;;;12.27;5.65;;;6.40;99.90;;;;;;5072575;28;20428;-80
2024/03/04 06:27:34;;;;;;;11.05;6.05;;;6.40;99.90;;;;;;5068593;28;20032;-80
2024/03/04 06:30:01;;;;;;;11.77;5.43;;;6.50;99.90;;;;;;5086400;28;20036;-80
2024/03/04 06:32:27;;;;;;;15.50;5.82;;;6.50;99.90;;;;;;5102378;28;20040;-80
2024/03/04 06:34:53;;;;;;;12.25;6.03;;;6.50;99.90;;;;;;5088646;28;20047;-80
2024/03/04 06:37:18;;;;;;;13.20;5.68;;;6.50;99.90;;;;;;5104985;28;20440;-78
2024/03/04 06:39:47;;;;;;;12.25;6.30;;;6.50;99.90;;;;;;5089890;28;20473;-79
2024/03/04 06:42:13;;;;;;;13.27;7.18;;;6.50;99.90;;;;;;5071887;28;20514;-79
2024/03/04 06:44:40;;;;;;;11.93;5.95;;;6.50;99.90;;;;;;5072721;28;20036;-79
2024/03/04 06:47:06;;;;;;;13.43;7.35;;;6.60;99.90;;;;;;5087479;28;20039;-80
2024/03/04 06:49:32;;;;;;;13.50;6.13;;;6.60;99.90;;;;;;5087505;28;20112;-78
2024/03/04 06:51:57;;;;;;;13.77;6.22;;;6.70;99.90;;;;;;5083002;28;20048;-80
2024/03/04 06:54:24;;;;;;;12.57;6.25;;;6.70;99.90;;;;;;5085759;28;20128;-79
2024/03/04 06:56:50;;;;;;;13.65;6.85;;;6.70;99.90;;;;;;5084621;28;20053;-79
2024/03/04 06:59:15;;;;;;;15.27;6.80;;;6.70;99.90;;;;;;5069848;28;20036;-80
2024/03/04 07:01:41;;;;;;;13.63;5.70;;;6.70;99.90;;;;;;5089287;28;20031;-80
2024/03/04 07:04:07;;;;;;;19.65;7.25;;;6.80;99.90;;;;;;5071508;28;20032;-80
2024/03/04 07:06:33;;;;;;;15.18;8.05;;;6.80;99.90;;;;;;5070653;28;20146;-80
2024/03/04 07:08:59;;;;;;;18.33;6.28;;;6.80;99.90;;;;;;5086350;28;20062;-80
2024/03/04 07:11:25;;;;;;;12.00;5.88;;;6.80;99.90;;;;;;5086009;28;20028;-79
2024/03/04 07:13:51;;;;;;;12.25;6.57;;;6.90;99.90;;;;;;5089923;28;20044;-80
2024/03/04 07:16:16;;;;;;;15.02;8.23;;;6.90;99.90;;;;;;5087064;28;20567;-80
2024/03/04 07:18:42;;;;;;;14.57;6.57;;;6.90;99.90;;;;;;5078280;28;20083;-81
2024/03/04 07:21:12;;;;;;;10.70;5.32;;;7.00;99.90;;;;;;5085518;28;20032;-80
2024/03/04 07:23:39;;;;;;;16.67;7.05;;;7.00;99.90;;;;;;5084993;28;20375;-80
2024/03/04 07:26:06;;;;;;;12.07;5.45;;;7.10;99.90;;;;;;5083233;28;20044;-81
2024/03/04 07:28:32;;;;;;;11.45;5.25;;;7.20;99.90;;;;;;5099590;28;20449;-80
2024/03/04 07:30:59;;;;;;;13.27;7.05;;;7.20;99.90;;;;;;5101198;28;20048;-81
2024/03/04 07:33:24;;;;;;;14.85;7.63;;;7.20;99.90;;;;;;5083490;28;20040;-80
2024/03/04 07:35:50;;;;;;;15.95;7.00;;;7.30;99.90;;;;;;5073145;28;20073;-81
2024/03/04 07:38:16;;;;;;;14.07;8.05;;;7.30;99.90;;;;;;5088342;28;20046;-81
2024/03/04 07:40:41;;;;;;;17.05;6.72;;;7.30;99.90;;;;;;5072766;28;20460;-78
2024/03/04 07:43:07;;;;;;;11.75;6.05;;;7.40;99.90;;;;;;5088560;28;20449;-79
2024/03/04 07:45:33;;;;;;;14.63;6.25;;;7.40;99.90;;;;;;5071325;28;20074;-78
2024/03/04 07:47:58;;;;;;;12.93;5.70;;;7.40;99.90;;;;;;5088049;28;20035;-79
2024/03/04 07:50:24;;;;;;;12.90;6.18;;;7.40;99.90;;;;;;5071502;28;20043;-81
2024/03/04 07:52:50;;;;;;;14.25;6.43;;;7.40;99.90;;;;;;5087047;28;20046;-81
2024/03/04 07:55:16;;;;;;;11.73;5.70;;;7.50;99.90;;;;;;5093496;28;20389;-81
2024/03/04 07:57:44;;;;;;;13.35;5.80;;;7.50;99.90;;;;;;5087583;28;20051;-81
2024/03/04 08:00:11;;;;;;;11.13;5.28;;;7.50;99.90;;;;;;5070938;28;20044;-82
2024/03/04 08:02:40;;;;;;;14.27;5.90;;;7.60;99.90;;;;;;5103182;28;20044;-80
2024/03/04 08:05:06;;;;;;;11.70;5.95;;;7.50;99.90;;;;;;5068307;28;20673;-82
2024/03/04 08:07:31;;;;;;;13.13;6.85;;;7.60;99.90;;;;;;5089960;28;20050;-82
2024/03/04 08:09:57;;;;;;;11.23;5.63;;;7.60;99.90;;;;;;5082826;28;20078;-81
2024/03/04 08:12:23;;;;;;;14.52;5.93;;;7.60;99.90;;;;;;5104482;28;20040;-81
2024/03/04 08:14:49;;;;;;;13.43;6.55;;;7.60;99.90;;;;;;5101787;28;20044;-82
2024/03/04 08:17:17;;;;;;;14.00;6.28;;;7.60;99.90;;;;;;5088140;28;20036;-82
2024/03/04 08:19:46;;;;;;;11.20;6.15;;;7.60;99.90;;;;;;5085086;28;20054;-82
2024/03/04 08:22:12;;;;;;;13.93;6.47;;;7.60;99.90;;;;;;5105677;28;20082;-82
2024/03/04 08:24:42;;;;;;;17.17;6.68;;;7.60;99.90;;;;;;5085136;28;20491;-81
2024/03/04 08:27:07;;;;;;;14.90;6.10;;;7.60;99.90;;;;;;5082342;28;20158;-81
2024/03/04 08:29:34;;;;;;;15.40;6.40;;;7.70;99.90;;;;;;5084337;28;20050;-81
2024/03/04 08:32:00;;;;;;;15.10;6.68;;;7.70;99.90;;;;;;5070791;28;20036;-83
2024/03/04 08:34:31;;;;;;;12.35;6.88;;;7.70;99.90;;;;;;5086459;28;20040;-81
2024/03/04 08:36:57;;;;;;;15.50;6.60;;;7.80;99.90;;;;;;5072046;28;20047;-82
2024/03/04 08:39:22;;;;;;;14.68;6.70;;;7.80;99.90;;;;;;5085774;28;20059;-81
2024/03/04 08:41:48;;;;;;;14.90;5.38;;;7.70;99.90;;;;;;5070879;28;20036;-81
2024/03/04 08:44:15;;;;;;;20.80;7.28;;;7.80;99.90;;;;;;5085669;28;20112;-81
2024/03/04 08:46:41;;;;;;;14.88;6.72;;;7.70;99.90;;;;;;5086672;28;20040;-81
2024/03/04 08:49:07;;;;;;;17.40;6.53;;;7.80;99.90;;;;;;5069934;28;20033;-81
2024/03/04 08:51:33;;;;;;;14.52;6.47;;;7.90;99.90;;;;;;5086424;28;20096;-82
2024/03/04 08:53:58;;;;;;;14.00;6.00;;;7.90;99.90;;;;;;5086318;28;20087;-81
2024/03/04 08:56:24;;;;;;;16.17;6.30;;;7.90;99.90;;;;;;5101852;28;20044;-81
2024/03/04 08:58:50;;;;;;;12.35;6.25;;;7.90;99.90;;;;;;5069934;28;20044;-81
2024/03/04 09:01:20;;;;;;;14.70;6.25;;;7.90;99.90;;;;;;5076683;28;20074;-82
2024/03/04 09:03:46;;;;;;;13.32;6.40;;;7.90;99.90;;;;;;5086107;28;20051;-81
2024/03/04 09:06:16;;;;;;;12.93;6.32;;;8.00;99.90;;;;;;5064972;28;20032;-81
2024/03/04 09:08:42;;;;;;;16.33;6.20;;;8.00;99.90;;;;;;5087009;28;20044;-81
2024/03/04 09:11:09;;;;;;;11.73;6.20;;;7.90;99.90;;;;;;5084490;28;20036;-81
2024/03/04 09:13:39;;;;;;;15.02;7.40;;;8.00;99.90;;;;;;5087406;28;20052;-81
2024/03/04 09:16:05;;;;;;;14.60;6.30;;;8.00;99.90;;;;;;5085146;28;20047;-82
2024/03/04 09:18:31;;;;;;;13.55;6.88;;;8.00;99.90;;;;;;5088819;28;20385;-82
2024/03/04 09:20:57;;;;;;;14.50;5.50;;;8.10;99.90;;;;;;5099504;28;20040;-82
2024/03/04 09:23:26;;;;;;;16.85;6.35;;;8.10;99.90;;;;;;5068313;28;20561;-82
2024/03/04 09:25:52;;;;;;;11.15;6.32;;;8.10;99.90;;;;;;5083138;28;20063;-83
2024/03/04 09:28:18;;;;;;;12.00;5.35;;;8.20;99.90;;;;;;5085762;28;20117;-82
2024/03/04 09:30:44;;;;;;;11.05;6.30;;;8.20;99.90;;;;;;5068111;28;20039;-82
2024/03/04 09:33:11;;;;;;;11.18;6.47;;;8.20;99.90;;;;;;5088121;28;20338;-82
2024/03/04 09:35:37;;;;;;;14.75;6.43;;;8.20;99.90;;;;;;5083474;28;20040;-82
2024/03/04 09:38:04;;;;;;;16.90;7.30;;;8.20;99.90;;;;;;5086328;28;20526;-82
2024/03/04 09:40:30;;;;;;;17.38;6.45;;;8.20;99.90;;;;;;5082541;28;20553;-81
2024/03/04 09:42:57;;;;;;;14.63;6.85;;;8.20;99.90;;;;;;5070053;28;20121;-82
2024/03/04 09:45:26;;;;;;;13.40;6.60;;;8.20;99.90;;;;;;5086564;28;20111;-77
2024/03/04 09:47:56;;;;;;;13.50;6.40;;;8.20;99.90;;;;;;5083136;28;20483;-78
2024/03/04 09:50:22;;;;;;;14.25;6.32;;;8.20;99.90;;;;;;5083967;28;20341;-77
2024/03/04 09:52:49;;;;;;;15.90;6.05;;;8.20;99.90;;;;;;5098627;28;20101;-78
2024/03/04 09:55:15;;;;;;;15.82;6.28;;;8.20;99.90;;;;;;5050197;28;20454;-78
2024/03/04 09:57:42;;;;;;;17.40;7.40;;;8.30;99.90;;;;;;5048825;28;20052;-78
2024/03/04 10:00:14;;;;;;;14.63;6.63;;;8.20;99.90;;;;;;5051281;28;20610;-77
2024/03/04 10:02:49;;;;;;;13.32;5.85;;;8.20;99.90;;;;;;5053251;28;20068;-77
2024/03/04 10:05:15;;;;;;;13.05;6.63;;;8.30;99.90;;;;;;5035176;28;20119;-78
2024/03/04 10:07:41;;;;;;;15.93;5.45;;;8.30;99.90;;;;;;5052347;28;20120;-77
2024/03/04 10:10:12;;;;;;;15.68;6.40;;;8.40;99.90;;;;;;5068684;28;20044;-77
2024/03/04 10:12:37;;;;;;;15.60;6.45;;;8.40;99.90;;;;;;5040297;28;20633;-78
2024/03/04 10:15:07;;;;;;;13.75;6.13;;;8.40;99.90;;;;;;5038414;28;20091;-78
2024/03/04 10:17:34;;;;;;;15.80;7.28;;;8.40;99.90;;;;;;5036969;28;20420;-78
2024/03/04 10:20:01;;;;;;;15.05;6.20;;;8.40;99.90;;;;;;5055205;28;20056;-78
2024/03/04 10:22:34;;;;;;;11.50;6.00;;;8.40;99.90;;;;;;5050396;28;20032;-78
2024/03/04 10:25:08;;;;;;;14.00;5.10;;;8.40;99.90;;;;;;5052470;28;20045;-77
2024/03/04 10:27:42;;;;;;;9.73;4.57;;;8.40;99.90;;;;;;5056990;28;20082;-77
2024/03/04 10:30:09;;;;;;;12.38;6.65;;;8.50;99.90;;;;;;5063701;28;20048;-78
2024/03/04 10:32:37;;;;;;;12.95;5.60;;;8.50;99.90;;;;;;5034854;28;20115;-77
2024/03/04 10:35:04;;;;;;;18.75;7.18;;;8.50;99.90;;;;;;5051856;28;20047;-77
2024/03/04 10:37:31;;;;;;;23.58;6.57;;;8.50;99.90;;;;;;5035499;28;20048;-77
2024/03/04 10:39:57;;;;;;;11.95;5.60;;;8.50;99.90;;;;;;5051871;28;20128;-77
2024/03/04 10:42:22;;;;;;;18.40;6.90;;;8.50;99.90;;;;;;5036610;28;21012;-77
2024/03/04 10:44:49;;;;;;;14.75;5.75;;;8.50;99.90;;;;;;5049909;28;20051;-77
2024/03/04 10:47:16;;;;;;;13.40;6.60;;;8.50;99.90;;;;;;5054864;28;20040;-77
2024/03/04 10:49:43;;;;;;;14.30;6.80;;;8.60;99.90;;;;;;5067738;28;20048;-77
2024/03/04 10:52:09;;;;;;;15.73;6.05;;;8.60;99.90;;;;;;5051710;28;20559;-78
2024/03/04 10:54:36;;;;;;;22.60;7.15;;;8.60;99.90;;;;;;5079000;28;20492;-78
2024/03/04 10:57:07;;;;;;;15.40;6.97;;;8.60;99.90;;;;;;5092173;28;20048;-77
2024/03/04 10:59:38;;;;;;;19.58;7.65;;;8.60;99.90;;;;;;5069054;28;20146;-77
2024/03/04 11:02:19;;;;;;;13.50;6.03;;;8.60;99.90;;;;;;5087882;28;20032;-77
2024/03/04 11:04:47;;;;;;;24.52;7.25;;;8.70;99.90;;;;;;5087484;28;20446;-78
2024/03/04 11:07:16;;;;;;;18.00;6.63;;;8.70;99.90;;;;;;5071648;28;20104;-78
2024/03/04 11:09:48;;;;;;;21.70;7.85;;;8.70;99.90;;;;;;5083843;28;20036;-77
2024/03/04 11:12:17;;;;;;;18.20;8.05;;;8.80;99.90;;;;;;5086071;28;20079;-78
2024/03/04 11:14:54;;;;;;;12.90;5.88;;;8.80;99.90;;;;;;5088371;28;20074;-77
2024/03/04 11:17:29;;;;;;;14.00;6.20;;;8.80;99.90;;;;;;5107898;28;20040;-77
2024/03/04 11:19:56;;;;;;;16.23;6.13;;;8.90;99.90;;;;;;5088628;28;20484;-78
2024/03/04 11:22:23;;;;;;;17.00;6.20;;;8.90;99.90;;;;;;5089989;28;20398;-77
2024/03/04 11:24:50;;;;;;;19.80;7.68;;;8.90;99.90;;;;;;5072482;28;20145;-77
2024/03/04 11:27:18;;;;;;;13.23;6.03;;;8.90;99.90;;;;;;5088057;28;20552;-77
2024/03/04 11:29:44;;;;;;;15.43;7.00;;;8.90;99.90;;;;;;5087229;28;20056;-77
2024/03/04 11:32:10;;;;;;;14.25;6.38;;;8.90;99.90;;;;;;5088192;28;20044;-77
2024/03/04 11:34:55;;;;;;;12.52;7.65;;;8.90;99.90;;;;;;5087043;28;20038;-77
2024/03/04 11:37:25;;;;;;;23.63;6.95;;;8.90;99.90;;;;;;5088592;28;20124;-77
2024/03/04 11:39:50;;;;;;;20.13;7.35;;;8.90;99.90;;;;;;5085966;28;20052;-77
2024/03/04 11:42:36;;;;;;;18.90;6.93;;;8.90;99.90;;;;;;5087182;28;20073;-77
2024/03/04 11:45:06;;;;;;;18.08;5.72;;;8.90;99.90;;;;;;5086023;28;20072;-77
2024/03/04 11:47:32;;;;;;;18.45;6.20;;;8.90;99.90;;;;;;5086758;28;20119;-77
2024/03/04 11:49:58;;;;;;;13.45;6.03;;;8.90;99.90;;;;;;5086130;28;20120;-77
2024/03/04 11:52:26;;;;;;;18.17;4.95;;;9.00;99.90;;;;;;5090488;28;20066;-77
2024/03/04 11:54:56;;;;;;;11.93;4.90;;;9.00;99.90;;;;;;5069692;28;20074;-78
2024/03/04 11:57:24;;;;;;;17.20;5.93;;;9.00;99.90;;;;;;5080471;28;20048;-78
2024/03/04 11:59:57;;;;;;;11.77;4.45;;;9.00;99.90;;;;;;5088904;28;20036;-78
2024/03/04 12:02:23;;;;;;;12.68;5.68;;;9.00;99.90;;;;;;5087404;28;20463;-78
2024/03/04 12:04:49;;;;;;;13.70;4.45;;;8.90;99.90;;;;;;5077792;28;20028;-78
2024/03/04 12:07:15;;;;;;;11.15;4.97;;;8.90;99.90;;;;;;5104488;28;20484;-79
2024/03/04 12:09:41;;;;;;;9.10;4.68;;;8.90;99.90;;;;;;5101480;28;20045;-78
2024/03/04 12:12:10;;;;;;;10.85;4.13;;;8.90;99.90;;;;;;5085706;28;20040;-79
2024/03/04 12:14:36;;;;;;;12.18;4.15;;;8.90;99.90;;;;;;5060707;28;20040;-78
2024/03/04 12:17:01;;;;;;;14.43;4.70;;;8.90;99.90;;;;;;5068279;28;20044;-78
2024/03/04 12:19:27;;;;;;;8.65;4.65;;;8.90;99.90;;;;;;5087672;28;20430;-78
2024/03/04 12:21:53;;;;;;;13.27;5.20;;;9.00;99.90;;;;;;5083843;28;20040;-79
2024/03/04 12:24:26;;;;;;;13.20;4.15;;;8.90;99.90;;;;;;5084312;28;20376;-77
2024/03/04 12:26:54;;;;;;;10.63;4.75;;;9.00;99.90;;;;;;5068610;28;20499;-77
2024/03/04 12:29:25;;;;;;;13.27;4.40;;;9.00;99.90;;;;;;5085027;28;20040;-76
2024/03/04 12:31:55;;;;;;;9.77;5.00;;;9.00;99.90;;;;;;5101286;28;20036;-76
2024/03/04 12:34:22;;;;;;;11.00;3.47;;;9.10;99.90;;;;;;5071401;28;20066;-77
2024/03/04 12:36:49;;;;;;;12.93;6.00;;;9.20;99.90;;;;;;5085071;28;20532;-77
2024/03/04 12:39:16;;;;;;;9.73;4.60;;;9.20;99.90;;;;;;5087337;28;20047;-77
2024/03/04 12:41:41;;;;;;;8.00;4.18;;;9.30;99.90;;;;;;5086457;28;20044;-77
2024/03/04 12:44:07;;;;;;;10.98;3.92;;;9.40;99.90;;;;;;5070721;28;20450;-77
2024/03/04 12:46:35;;;;;;;13.15;4.93;;;9.50;99.90;;;;;;5089060;28;20126;-77
2024/03/04 12:49:04;;;;;;;7.47;4.10;;;9.60;99.90;;;;;;5069621;28;20086;-78